Time;durP1;ratioP1;P1;durP2;ratioP2;P2;SDS_P1;SDS_P2;PMS_P1;PMS_P2;Temp;Humidity;BMP_temperature;BMP_pressure;BME280_temperature;BME280_humidity;BME280_pressure;Samples;Min_cycle;Max_cycle;Signal;HPM_P1;HPM_P2
2021/03/16 00:02:13;;;;;;;4.17;2.77;;;5.70;80.10;;;;;;5025729;28;20202;-89
2021/03/16 00:04:39;;;;;;;6.87;3.30;;;5.70;80.10;;;;;;5025640;28;20641;-89
2021/03/16 00:07:09;;;;;;;3.57;2.77;;;5.70;80.70;;;;;;5025274;28;20743;-89
2021/03/16 00:09:35;;;;;;;4.93;2.50;;;5.80;80.00;;;;;;5026159;28;20192;-89
2021/03/16 00:12:01;;;;;;;5.30;3.30;;;5.80;79.90;;;;;;5025837;28;20185;-90
2021/03/16 00:14:27;;;;;;;5.83;3.27;;;5.70;80.60;;;;;;5026613;28;20190;-89
2021/03/16 00:16:52;;;;;;;5.30;2.80;;;5.80;80.70;;;;;;5026541;28;20236;-88
2021/03/16 00:19:19;;;;;;;5.70;2.90;;;5.80;79.80;;;;;;5026530;28;20181;-87
2021/03/16 00:21:45;;;;;;;5.43;3.23;;;5.90;79.70;;;;;;5026151;28;20241;-89
2021/03/16 00:24:12;;;;;;;4.93;2.97;;;5.90;79.70;;;;;;5009086;28;20177;-88
2021/03/16 00:26:37;;;;;;;5.03;3.20;;;5.90;79.40;;;;;;5026385;28;20232;-89
2021/03/16 00:29:03;;;;;;;6.37;3.43;;;5.90;79.60;;;;;;5012082;28;20280;-89
2021/03/16 00:31:29;;;;;;;4.97;3.43;;;6.00;79.20;;;;;;5018327;28;20190;-88
2021/03/16 00:33:55;;;;;;;3.20;2.90;;;5.90;80.20;;;;;;5021749;28;20197;-88
2021/03/16 00:36:21;;;;;;;4.50;3.17;;;5.90;79.10;;;;;;5007100;28;20239;-89
2021/03/16 00:38:48;;;;;;;6.20;3.17;;;5.90;81.10;;;;;;5008328;28;20193;-89
2021/03/16 00:41:14;;;;;;;4.40;3.40;;;6.00;80.40;;;;;;5025917;28;20208;-88
2021/03/16 00:43:39;;;;;;;4.30;3.33;;;6.00;80.90;;;;;;5014846;28;20206;-88
2021/03/16 00:46:05;;;;;;;5.47;3.60;;;5.90;80.10;;;;;;5020310;28;20197;-88
2021/03/16 00:48:31;;;;;;;6.93;3.70;;;5.90;80.60;;;;;;5019794;28;20184;-88
2021/03/16 00:50:57;;;;;;;6.83;3.77;;;5.80;81.40;;;;;;5008966;28;20209;-88
2021/03/16 00:53:22;;;;;;;6.20;4.03;;;5.70;82.60;;;;;;5025756;28;20194;-89
2021/03/16 00:55:48;;;;;;;6.07;3.07;;;5.70;81.60;;;;;;5026392;28;20193;-89
2021/03/16 00:58:14;;;;;;;5.43;3.20;;;5.70;81.30;;;;;;5025965;28;20292;-89
2021/03/16 01:00:40;;;;;;;5.13;3.17;;;5.70;81.60;;;;;;5007483;28;20611;-88
2021/03/16 01:03:05;;;;;;;6.73;3.80;;;5.70;80.30;;;;;;5026103;28;20196;-88
2021/03/16 01:05:34;;;;;;;5.93;3.03;;;5.60;80.90;;;;;;5026300;28;20200;-89
2021/03/16 01:08:00;;;;;;;4.80;3.30;;;5.60;81.50;;;;;;5026552;28;20197;-88
2021/03/16 01:10:28;;;;;;;4.73;3.23;;;5.60;81.20;;;;;;5008837;28;20189;-88
2021/03/16 01:12:54;;;;;;;6.40;3.07;;;5.70;81.00;;;;;;5025866;28;20182;-88
2021/03/16 01:15:21;;;;;;;3.87;2.90;;;5.60;80.20;;;;;;5007951;28;20204;-89
2021/03/16 01:17:46;;;;;;;5.37;3.10;;;5.60;81.10;;;;;;5008094;28;20224;-89
2021/03/16 01:20:19;;;;;;;4.70;3.47;;;5.60;81.40;;;;;;5025457;28;20197;-88
2021/03/16 01:22:44;;;;;;;6.57;3.17;;;5.50;81.90;;;;;;5025381;28;20197;-89
2021/03/16 01:25:10;;;;;;;6.63;3.57;;;5.60;81.90;;;;;;5008762;28;20178;-89
2021/03/16 01:27:37;;;;;;;6.87;3.37;;;5.60;81.50;;;;;;5008791;28;20205;-89
2021/03/16 01:30:05;;;;;;;6.53;3.53;;;5.70;82.30;;;;;;5007990;28;20189;-89
2021/03/16 01:32:30;;;;;;;4.60;3.47;;;5.70;80.90;;;;;;5007467;28;20276;-89
2021/03/16 01:34:56;;;;;;;5.70;3.43;;;5.60;81.20;;;;;;5024554;28;20170;-89
2021/03/16 01:37:22;;;;;;;9.50;4.10;;;5.60;81.70;;;;;;5006918;28;20236;-89
2021/03/16 01:39:48;;;;;;;4.27;3.10;;;5.60;82.00;;;;;;5024618;28;20233;-89
2021/03/16 01:42:15;;;;;;;6.20;3.63;;;5.60;82.30;;;;;;5024075;28;20204;-89
2021/03/16 01:44:43;;;;;;;5.67;3.83;;;5.60;81.40;;;;;;5006768;28;20185;-89
2021/03/16 01:47:11;;;;;;;5.20;3.97;;;5.70;81.90;;;;;;5006897;28;20201;-89
2021/03/16 01:49:38;;;;;;;6.70;4.37;;;5.60;81.90;;;;;;5006536;28;20181;-88
2021/03/16 01:52:05;;;;;;;5.80;3.43;;;5.70;81.20;;;;;;5022818;28;20665;-90
2021/03/16 01:54:31;;;;;;;4.77;3.23;;;5.70;80.70;;;;;;5007245;28;20184;-89
2021/03/16 01:57:00;;;;;;;5.70;3.63;;;5.80;80.00;;;;;;5024709;28;20261;-89
2021/03/16 01:59:27;;;;;;;7.63;3.93;;;5.70;79.40;;;;;;5023951;28;20185;-89
2021/03/16 02:01:53;;;;;;;4.73;3.03;;;5.80;79.70;;;;;;5024477;28;20260;-89
2021/03/16 02:04:18;;;;;;;4.37;3.10;;;5.80;79.00;;;;;;5024906;28;20186;-89
2021/03/16 02:06:54;;;;;;;4.73;3.43;;;5.70;79.30;;;;;;5024949;28;20193;-89
2021/03/16 02:09:31;;;;;;;5.80;3.00;;;5.60;80.00;;;;;;5007648;28;20185;-88
2021/03/16 02:12:05;;;;;;;5.40;3.30;;;5.70;80.30;;;;;;5025093;28;20181;-89
2021/03/16 02:14:45;;;;;;;4.60;2.97;;;5.70;80.20;;;;;;5024337;28;20185;-89
2021/03/16 02:17:15;;;;;;;4.97;3.47;;;5.70;80.00;;;;;;5007109;28;20224;-89
2021/03/16 02:19:56;;;;;;;3.90;2.80;;;5.80;79.80;;;;;;5023894;28;20174;-89
2021/03/16 02:22:24;;;;;;;4.50;3.00;;;5.70;79.70;;;;;;5021879;28;20221;-89
2021/03/16 02:25:11;;;;;;;7.40;3.30;;;5.70;79.60;;;;;;5024016;28;20429;-89
2021/03/16 02:28:06;;;;;;;8.13;3.30;;;5.70;79.40;;;;;;5006732;28;20197;-89
2021/03/16 02:30:33;;;;;;;5.13;3.10;;;5.60;79.70;;;;;;5023546;28;20177;-89
2021/03/16 02:33:00;;;;;;;3.87;2.70;;;5.70;79.80;;;;;;5019691;28;20192;-90
2021/03/16 02:35:26;;;;;;;4.23;2.77;;;5.60;79.10;;;;;;5024103;28;20201;-89
2021/03/16 02:37:55;;;;;;;3.37;2.83;;;5.60;79.70;;;;;;5024424;28;20233;-88
2021/03/16 02:40:25;;;;;;;8.67;3.03;;;5.60;79.10;;;;;;5024029;28;20198;-89
2021/03/16 02:42:51;;;;;;;4.83;2.53;;;5.70;78.70;;;;;;5024028;28;20259;-89
2021/03/16 02:45:17;;;;;;;6.97;3.00;;;5.70;78.00;;;;;;5027045;28;20256;-89
2021/03/16 02:47:44;;;;;;;5.03;3.10;;;5.60;77.40;;;;;;5023875;28;20198;-88
2021/03/16 02:50:11;;;;;;;3.17;2.43;;;5.60;77.80;;;;;;5005889;28;20208;-88
2021/03/16 02:52:38;;;;;;;6.47;2.83;;;5.60;78.10;;;;;;5003377;28;20285;-89
2021/03/16 02:55:05;;;;;;;5.43;3.07;;;5.60;77.70;;;;;;5006780;28;20174;-88
2021/03/16 02:57:32;;;;;;;5.00;2.57;;;5.70;77.00;;;;;;5007680;28;20198;-88
2021/03/16 03:00:01;;;;;;;4.27;2.60;;;5.70;76.70;;;;;;5008135;28;20205;-88
2021/03/16 03:02:29;;;;;;;5.13;2.73;;;5.70;76.20;;;;;;5008330;28;20568;-88
2021/03/16 03:04:56;;;;;;;7.23;3.07;;;5.70;76.10;;;;;;5008258;28;20243;-88
2021/03/16 03:07:24;;;;;;;3.70;2.33;;;5.70;75.90;;;;;;5008169;28;20190;-89
2021/03/16 03:09:50;;;;;;;4.53;2.60;;;5.60;77.00;;;;;;5007302;28;20201;-89
2021/03/16 03:12:16;;;;;;;6.67;3.10;;;5.60;77.20;;;;;;5008212;28;20177;-88
2021/03/16 03:14:41;;;;;;;6.03;3.10;;;5.60;77.70;;;;;;4990424;28;20408;-88
2021/03/16 03:17:08;;;;;;;7.97;3.63;;;5.40;78.50;;;;;;5007810;28;20206;-88
2021/03/16 03:19:34;;;;;;;5.97;3.40;;;5.30;78.90;;;;;;5007818;28;20265;-88
2021/03/16 03:22:29;;;;;;;4.63;3.50;;;5.30;79.60;;;;;;4990543;28;20241;-88
2021/03/16 03:25:01;;;;;;;6.43;3.10;;;5.40;79.80;;;;;;5007618;28;20171;-88
2021/03/16 03:27:33;;;;;;;6.30;3.63;;;5.40;79.90;;;;;;5008015;28;20201;-88
2021/03/16 03:30:00;;;;;;;6.07;2.90;;;5.40;80.10;;;;;;5027087;28;20276;-88
2021/03/16 03:32:29;;;;;;;5.83;3.80;;;5.30;80.30;;;;;;5028543;28;20236;-88
2021/03/16 03:34:59;;;;;;;7.40;3.27;;;5.30;80.50;;;;;;5029731;28;20181;-89
2021/03/16 03:37:26;;;;;;;8.73;3.27;;;5.30;81.70;;;;;;5027212;28;20632;-89
2021/03/16 03:39:53;;;;;;;5.77;3.73;;;5.30;80.80;;;;;;5027438;28;20262;-88
2021/03/16 03:42:19;;;;;;;4.87;2.73;;;5.40;80.40;;;;;;5026833;28;20209;-88
2021/03/16 03:44:47;;;;;;;6.43;3.23;;;5.40;80.40;;;;;;5027623;28;20178;-88
2021/03/16 03:47:16;;;;;;;7.53;3.60;;;5.40;80.70;;;;;;5028040;28;20197;-88
2021/03/16 03:49:45;;;;;;;7.20;3.53;;;5.40;80.50;;;;;;5010297;28;20185;-87
2021/03/16 03:52:14;;;;;;;7.87;3.67;;;5.50;80.70;;;;;;4994813;28;20186;-88
2021/03/16 03:54:45;;;;;;;7.13;4.10;;;5.50;81.50;;;;;;5027013;28;20177;-88
2021/03/16 03:57:13;;;;;;;5.67;3.33;;;5.50;80.50;;;;;;5026962;28;20599;-88
2021/03/16 03:59:44;;;;;;;5.10;3.10;;;5.50;81.50;;;;;;5009322;28;20186;-88
2021/03/16 04:02:10;;;;;;;4.97;3.47;;;5.50;80.90;;;;;;5009735;28;20240;-88
2021/03/16 04:04:38;;;;;;;8.40;3.63;;;5.50;80.90;;;;;;5009319;28;20239;-87
2021/03/16 04:07:05;;;;;;;3.97;3.40;;;5.50;80.40;;;;;;5026826;28;20190;-88
2021/03/16 04:09:31;;;;;;;5.63;3.13;;;5.40;81.90;;;;;;5009089;28;20177;-88
2021/03/16 04:11:58;;;;;;;8.70;3.90;;;5.40;81.40;;;;;;5025887;28;20188;-88
2021/03/16 04:14:25;;;;;;;7.47;4.17;;;5.40;81.40;;;;;;5006108;28;20197;-88
2021/03/16 04:17:14;;;;;;;5.83;3.37;;;5.40;81.00;;;;;;5026421;28;20300;-88
2021/03/16 04:19:40;;;;;;;9.20;3.40;;;5.30;81.70;;;;;;4990585;28;20206;-88
2021/03/16 04:22:05;;;;;;;4.90;3.03;;;5.30;81.80;;;;;;5013617;28;20215;-88
2021/03/16 04:24:43;;;;;;;7.17;3.23;;;5.20;82.40;;;;;;5026513;28;20648;-88
2021/03/16 04:27:09;;;;;;;3.27;2.73;;;5.20;82.20;;;;;;5026679;28;20224;-88
2021/03/16 04:29:35;;;;;;;4.37;2.67;;;5.20;82.30;;;;;;5026018;28;20194;-89
2021/03/16 04:32:00;;;;;;;7.57;3.00;;;5.10;82.30;;;;;;5007826;28;20225;-88
2021/03/16 04:34:28;;;;;;;7.10;3.00;;;5.10;82.10;;;;;;4989619;28;20252;-89
2021/03/16 04:36:54;;;;;;;10.53;3.27;;;5.10;82.30;;;;;;4988978;28;20229;-88
2021/03/16 04:39:19;;;;;;;4.80;3.10;;;5.10;82.40;;;;;;5006983;28;20669;-89
2021/03/16 04:41:45;;;;;;;6.33;2.80;;;5.10;82.60;;;;;;5006026;28;20229;-89
2021/03/16 04:44:11;;;;;;;7.27;3.03;;;5.10;81.80;;;;;;5025529;28;20204;-88
2021/03/16 04:46:37;;;;;;;8.47;3.20;;;5.10;81.90;;;;;;5024976;28;20229;-89
2021/03/16 04:49:02;;;;;;;3.93;2.87;;;5.10;82.40;;;;;;4994008;28;20194;-89
2021/03/16 04:51:28;;;;;;;6.40;3.00;;;5.10;82.00;;;;;;4985396;28;20244;-89
2021/03/16 04:53:55;;;;;;;7.90;2.87;;;5.20;81.90;;;;;;4983597;28;20191;-89
2021/03/16 04:56:21;;;;;;;4.53;2.47;;;5.20;81.00;;;;;;5001717;28;20198;-87
2021/03/16 04:58:46;;;;;;;4.20;2.73;;;5.20;80.90;;;;;;5007646;28;20221;-87
2021/03/16 05:01:12;;;;;;;8.83;3.20;;;5.10;80.70;;;;;;5005945;28;20274;-88
2021/03/16 05:03:38;;;;;;;7.33;2.70;;;5.10;80.90;;;;;;5006642;28;20178;-88
2021/03/16 05:06:04;;;;;;;4.13;2.63;;;5.10;80.80;;;;;;5010958;28;20201;-88
2021/03/16 05:08:29;;;;;;;5.27;2.53;;;5.10;80.10;;;;;;5024487;28;20208;-86
2021/03/16 05:10:55;;;;;;;6.00;3.10;;;5.10;80.30;;;;;;5022335;28;20186;-87
2021/03/16 05:13:21;;;;;;;5.67;2.80;;;5.20;80.40;;;;;;5024603;28;20185;-86
2021/03/16 05:15:47;;;;;;;6.20;2.80;;;5.10;79.50;;;;;;5023996;28;20185;-87
2021/03/16 05:18:12;;;;;;;6.87;2.93;;;5.10;80.00;;;;;;5023840;28;20252;-88
2021/03/16 05:20:38;;;;;;;5.47;2.53;;;5.20;79.80;;;;;;4994379;28;20182;-87
2021/03/16 05:23:04;;;;;;;4.83;2.50;;;5.20;79.70;;;;;;4987489;28;20218;-87
2021/03/16 05:25:31;;;;;;;5.50;2.80;;;5.10;79.40;;;;;;5004980;28;20249;-88
2021/03/16 05:27:57;;;;;;;5.17;2.43;;;5.10;79.90;;;;;;5004579;28;20194;-87
2021/03/16 05:30:23;;;;;;;5.90;2.60;;;5.10;79.70;;;;;;5005185;28;20297;-87
2021/03/16 05:32:59;;;;;;;5.63;2.87;;;5.10;79.80;;;;;;5004931;28;20189;-88
2021/03/16 05:35:28;;;;;;;7.53;3.00;;;5.20;79.60;;;;;;4975539;28;20189;-87
2021/03/16 05:37:56;;;;;;;5.33;2.73;;;5.20;79.70;;;;;;5024209;28;20197;-88
2021/03/16 05:40:27;;;;;;;35.43;22.60;;;5.20;79.80;;;;;;5006743;28;20224;-87
2021/03/16 05:42:53;;;;;;;44.93;32.90;;;5.20;79.60;;;;;;5023450;28;20225;-88
2021/03/16 05:45:19;;;;;;;7.10;3.30;;;5.20;79.90;;;;;;5006503;28;20182;-88
2021/03/16 05:47:47;;;;;;;8.50;5.93;;;5.20;80.10;;;;;;5024072;28;20727;-88
2021/03/16 05:50:14;;;;;;;5.63;2.90;;;5.20;80.30;;;;;;5016290;28;20186;-88
2021/03/16 05:52:41;;;;;;;12.90;10.53;;;5.10;80.10;;;;;;5004576;28;20545;-88
2021/03/16 05:55:07;;;;;;;7.97;3.70;;;5.10;80.80;;;;;;4986356;28;20186;-88
2021/03/16 05:57:34;;;;;;;5.07;3.10;;;5.10;80.60;;;;;;4989449;28;20202;-88
2021/03/16 05:59:59;;;;;;;5.47;2.80;;;5.20;80.10;;;;;;5023165;28;20177;-88
2021/03/16 06:02:25;;;;;;;6.83;4.33;;;5.20;79.70;;;;;;5005702;28;20232;-87
2021/03/16 06:04:51;;;;;;;8.83;8.00;;;5.20;79.40;;;;;;5005924;28;20216;-87
2021/03/16 06:07:17;;;;;;;4.43;2.73;;;5.30;79.60;;;;;;5002233;28;20221;-88
2021/03/16 06:09:44;;;;;;;6.10;3.00;;;5.20;80.50;;;;;;5002512;28;20190;-88
2021/03/16 06:12:11;;;;;;;5.43;2.90;;;5.20;79.70;;;;;;5010290;28;20189;-88
2021/03/16 06:14:38;;;;;;;5.50;3.40;;;5.40;79.30;;;;;;5021052;28;20185;-89
2021/03/16 06:17:05;;;;;;;7.03;3.97;;;5.40;79.20;;;;;;5005052;28;20206;-88
2021/03/16 06:19:34;;;;;;;8.67;4.07;;;5.40;79.00;;;;;;5023438;28;20189;-88
2021/03/16 06:22:02;;;;;;;4.00;2.80;;;5.30;79.40;;;;;;5005549;28;20209;-88
2021/03/16 06:24:28;;;;;;;4.10;2.40;;;5.30;80.10;;;;;;5009466;28;20206;-88
2021/03/16 06:26:53;;;;;;;6.83;2.67;;;5.30;79.80;;;;;;5023066;28;20197;-89
2021/03/16 06:29:19;;;;;;;4.53;2.80;;;5.30;78.90;;;;;;5023660;28;20170;-89
2021/03/16 06:31:45;;;;;;;3.23;2.80;;;5.30;79.50;;;;;;5014255;28;20209;-88
2021/03/16 06:34:29;;;;;;;5.97;3.10;;;5.30;80.10;;;;;;4986887;28;20194;-88
2021/03/16 06:37:01;;;;;;;5.40;3.03;;;5.30;80.30;;;;;;5004966;28;20244;-89
2021/03/16 06:39:28;;;;;;;7.03;2.60;;;5.40;79.60;;;;;;5004456;28;20198;-88
2021/03/16 06:41:54;;;;;;;8.40;3.20;;;5.40;80.10;;;;;;5004539;28;20212;-88
2021/03/16 06:44:22;;;;;;;6.63;2.93;;;5.40;79.30;;;;;;5004732;28;20192;-88
2021/03/16 06:46:54;;;;;;;3.60;3.13;;;5.50;79.30;;;;;;5004671;28;20206;-88
2021/03/16 06:49:21;;;;;;;5.17;2.97;;;5.50;79.00;;;;;;5004822;28;20194;-89
2021/03/16 06:51:48;;;;;;;7.13;2.93;;;5.50;78.40;;;;;;5004889;28;20213;-88
2021/03/16 06:54:19;;;;;;;4.27;2.63;;;5.50;78.90;;;;;;4997727;28;20255;-88
2021/03/16 06:56:53;;;;;;;6.27;3.33;;;5.50;79.20;;;;;;5022018;28;20205;-88
2021/03/16 06:59:22;;;;;;;6.93;4.40;;;5.60;78.10;;;;;;5005587;28;20181;-88
2021/03/16 07:01:48;;;;;;;5.37;3.00;;;5.60;78.90;;;;;;5024702;28;20225;-89
2021/03/16 07:04:19;;;;;;;7.00;3.67;;;5.60;78.40;;;;;;5006509;28;20675;-88
2021/03/16 07:06:45;;;;;;;10.77;4.70;;;5.60;79.20;;;;;;5024551;28;20201;-88
2021/03/16 07:09:12;;;;;;;5.60;5.10;;;5.70;78.70;;;;;;4998166;28;20193;-88
2021/03/16 07:11:40;;;;;;;7.60;3.97;;;5.60;78.80;;;;;;5011088;28;20220;-88
2021/03/16 07:14:07;;;;;;;14.80;4.60;;;5.50;79.30;;;;;;5024031;28;20212;-88
2021/03/16 07:16:36;;;;;;;5.67;3.40;;;5.60;79.70;;;;;;5005730;28;20585;-89
2021/03/16 07:19:06;;;;;;;5.40;3.43;;;5.60;79.80;;;;;;5024277;28;20185;-88
2021/03/16 07:21:54;;;;;;;7.77;4.00;;;5.60;80.10;;;;;;5020305;28;20216;-89
2021/03/16 07:24:39;;;;;;;5.10;3.57;;;5.60;80.80;;;;;;5004815;28;20189;-88
2021/03/16 07:27:05;;;;;;;8.27;3.50;;;5.70;79.60;;;;;;5023898;28;20198;-89
2021/03/16 07:29:33;;;;;;;3.60;3.10;;;5.70;79.60;;;;;;5017925;28;20189;-89
2021/03/16 07:32:02;;;;;;;5.67;3.17;;;5.80;78.40;;;;;;5024224;28;20186;-89
2021/03/16 07:34:28;;;;;;;6.03;3.03;;;5.80;78.70;;;;;;5023991;28;20190;-89
2021/03/16 07:36:55;;;;;;;7.00;3.23;;;5.80;78.50;;;;;;5023398;28;20197;-90
2021/03/16 07:39:23;;;;;;;7.77;3.20;;;5.90;77.50;;;;;;5006722;28;20202;-87
2021/03/16 07:41:51;;;;;;;5.97;3.20;;;5.90;78.80;;;;;;5028056;28;20634;-92
2021/03/16 07:44:18;;;;;;;7.67;3.60;;;6.00;78.10;;;;;;5011709;28;20182;-92
2021/03/16 07:47:11;;;;;;;6.47;3.30;;;6.00;77.90;;;;;;4994762;28;20248;-92
2021/03/16 07:49:40;;;;;;;6.17;2.83;;;5.90;77.60;;;;;;5033617;28;20212;-92
2021/03/16 07:52:45;;;;;;;6.43;3.00;;;5.90;78.00;;;;;;5009774;28;20188;-93
2021/03/16 07:55:23;;;;;;;5.97;3.00;;;6.00;78.60;;;;;;5027752;28;20215;-92
2021/03/16 07:57:48;;;;;;;5.43;3.23;;;6.00;78.40;;;;;;5027059;28;20228;-93
2021/03/16 08:00:15;;;;;;;6.50;3.00;;;6.10;77.20;;;;;;5010341;28;20182;-93
2021/03/16 08:02:44;;;;;;;5.73;3.50;;;6.20;76.00;;;;;;5028448;28;20212;-93
2021/03/16 08:05:43;;;;;;;5.60;2.90;;;6.10;76.90;;;;;;5010075;28;20239;-92
2021/03/16 08:08:19;;;;;;;4.87;3.07;;;6.30;76.80;;;;;;4992986;28;20293;-92
2021/03/16 08:10:47;;;;;;;6.93;3.17;;;6.20;76.30;;;;;;5027563;28;20528;-92
2021/03/16 08:13:18;;;;;;;7.97;3.30;;;6.30;76.90;;;;;;5009586;28;20189;-93
2021/03/16 08:15:49;;;;;;;7.30;3.20;;;6.40;75.50;;;;;;5011876;28;20189;-92
2021/03/16 08:18:27;;;;;;;6.93;2.70;;;6.50;76.10;;;;;;5030061;28;20304;-93
2021/03/16 08:21:14;;;;;;;5.33;3.03;;;6.60;75.90;;;;;;5013330;28;20181;-93
2021/03/16 08:23:40;;;;;;;7.97;3.07;;;6.60;75.80;;;;;;5027376;28;20201;-92
2021/03/16 08:26:16;;;;;;;7.33;2.97;;;6.80;73.90;;;;;;4992140;28;20191;-93
2021/03/16 08:28:47;;;;;;;5.13;2.80;;;6.80;73.20;;;;;;5010454;28;20324;-93
2021/03/16 08:31:14;;;;;;;5.70;2.93;;;6.90;73.40;;;;;;5009847;28;20245;-93
2021/03/16 08:33:40;;;;;;;7.07;2.73;;;6.80;72.80;;;;;;4992513;28;20194;-94
2021/03/16 08:36:06;;;;;;;7.47;2.80;;;7.00;71.00;;;;;;5009676;28;20253;-94
2021/03/16 08:38:32;;;;;;;5.50;3.30;;;7.00;71.10;;;;;;5018283;28;20220;-93
2021/03/16 08:41:09;;;;;;;3.57;2.30;;;7.00;70.00;;;;;;5011904;28;20189;-91
2021/03/16 08:43:35;;;;;;;7.00;2.60;;;7.00;71.50;;;;;;4994925;28;20178;-93
2021/03/16 08:46:01;;;;;;;5.13;2.77;;;7.00;71.60;;;;;;5009277;28;20284;-92
2021/03/16 08:48:29;;;;;;;9.40;2.50;;;7.00;69.40;;;;;;5011161;28;20679;-92
2021/03/16 08:50:55;;;;;;;8.80;2.40;;;7.10;69.80;;;;;;5025503;28;20603;-93
2021/03/16 08:53:23;;;;;;;6.77;2.83;;;7.00;71.00;;;;;;5025401;28;20271;-93
2021/03/16 08:55:50;;;;;;;6.57;2.23;;;7.20;69.60;;;;;;5010294;28;20189;-93
2021/03/16 08:58:17;;;;;;;8.03;2.90;;;7.30;68.90;;;;;;5025508;28;20205;-92
2021/03/16 09:00:44;;;;;;;5.90;3.00;;;7.30;69.60;;;;;;5025486;28;20262;-92
2021/03/16 09:03:10;;;;;;;9.10;2.63;;;7.30;68.80;;;;;;5025023;28;20267;-92
2021/03/16 09:05:36;;;;;;;5.50;2.60;;;7.30;69.40;;;;;;5009589;28;20185;-93
2021/03/16 09:08:04;;;;;;;7.80;2.70;;;7.40;68.00;;;;;;5009673;28;20568;-93
2021/03/16 09:10:35;;;;;;;6.07;2.70;;;7.50;65.90;;;;;;5026562;28;20232;-93
2021/03/16 09:13:02;;;;;;;7.47;2.50;;;7.50;67.70;;;;;;5022846;28;20731;-92
2021/03/16 09:15:33;;;;;;;9.80;2.77;;;7.50;66.30;;;;;;5037848;28;20188;-91
2021/03/16 09:18:05;;;;;;;6.80;2.70;;;7.70;65.70;;;;;;5020779;28;20224;-91
2021/03/16 09:20:37;;;;;;;7.13;2.53;;;7.80;64.90;;;;;;5031693;28;20236;-92
2021/03/16 09:23:12;;;;;;;6.13;2.30;;;7.60;66.50;;;;;;5036683;28;20206;-93
2021/03/16 09:25:39;;;;;;;5.63;2.73;;;7.50;64.80;;;;;;5010242;28;20245;-92
2021/03/16 09:28:07;;;;;;;6.03;2.63;;;7.60;64.60;;;;;;5000310;28;20214;-92
2021/03/16 09:30:44;;;;;;;5.87;2.53;;;7.60;64.70;;;;;;5026959;28;20186;-92
2021/03/16 09:33:12;;;;;;;4.23;2.40;;;7.50;63.80;;;;;;5008861;28;20240;-92
2021/03/16 09:35:38;;;;;;;6.00;2.30;;;7.60;63.10;;;;;;5020836;28;20177;-92
2021/03/16 09:38:08;;;;;;;4.57;2.63;;;7.50;64.30;;;;;;5013657;28;20266;-91
2021/03/16 09:40:40;;;;;;;7.10;3.07;;;7.50;64.40;;;;;;5006920;28;20198;-92
2021/03/16 09:43:15;;;;;;;3.87;2.90;;;7.40;65.20;;;;;;5019404;28;20197;-93
2021/03/16 09:45:56;;;;;;;4.97;2.80;;;7.40;64.50;;;;;;5026624;28;20184;-93
2021/03/16 09:48:23;;;;;;;5.53;2.17;;;7.50;63.40;;;;;;5026997;28;20232;-92
2021/03/16 09:50:49;;;;;;;4.77;2.40;;;7.60;64.00;;;;;;5027134;28;20178;-93
2021/03/16 09:53:17;;;;;;;4.47;2.30;;;7.70;63.80;;;;;;5026980;28;20193;-92
2021/03/16 09:55:43;;;;;;;3.83;2.07;;;7.70;63.10;;;;;;5025211;28;20354;-92
2021/03/16 09:58:22;;;;;;;4.40;2.17;;;7.80;61.80;;;;;;5008272;28;20217;-90
2021/03/16 10:00:49;;;;;;;5.03;2.57;;;7.90;63.20;;;;;;5006507;28;20185;-93
2021/03/16 10:03:16;;;;;;;3.57;2.13;;;7.80;62.50;;;;;;5006042;28;20193;-92
2021/03/16 10:05:42;;;;;;;6.73;2.80;;;7.90;60.80;;;;;;5007400;28;20189;-91
2021/03/16 10:08:08;;;;;;;7.10;4.67;;;7.70;62.50;;;;;;5007059;28;20231;-91
2021/03/16 10:10:39;;;;;;;3.93;1.80;;;7.80;62.10;;;;;;5005278;28;20209;-91
2021/03/16 10:13:07;;;;;;;4.83;2.20;;;7.70;60.00;;;;;;5007591;28;20182;-91
2021/03/16 10:15:41;;;;;;;6.83;2.20;;;7.90;60.10;;;;;;5021549;28;20243;-89
2021/03/16 10:18:09;;;;;;;5.10;2.80;;;7.90;60.30;;;;;;5004728;28;20218;-89
2021/03/16 10:20:44;;;;;;;6.37;2.23;;;8.00;59.40;;;;;;5021903;28;20194;-90
2021/03/16 10:23:12;;;;;;;5.27;2.20;;;8.00;59.70;;;;;;5018591;28;20220;-91
2021/03/16 10:25:38;;;;;;;4.60;2.67;;;8.00;59.70;;;;;;5017220;28;20200;-92
2021/03/16 10:28:09;;;;;;;6.33;2.27;;;8.10;60.00;;;;;;5016233;28;20206;-93
2021/03/16 10:30:39;;;;;;;5.03;2.00;;;8.20;58.00;;;;;;4990623;28;20189;-92
2021/03/16 10:33:07;;;;;;;2.47;2.10;;;8.20;56.20;;;;;;5004765;28;20185;-91
2021/03/16 10:35:34;;;;;;;3.43;2.20;;;8.20;56.20;;;;;;4992132;28;20568;-93
2021/03/16 10:38:02;;;;;;;3.23;2.33;;;8.30;54.80;;;;;;4989423;28;20218;-92
2021/03/16 10:40:28;;;;;;;3.70;2.50;;;8.40;55.40;;;;;;5031731;28;20637;-93
2021/03/16 10:42:54;;;;;;;3.80;2.10;;;8.50;56.10;;;;;;5024900;28;20279;-92
2021/03/16 10:45:20;;;;;;;4.43;2.40;;;8.60;55.10;;;;;;5026222;28;20185;-93
2021/03/16 10:47:46;;;;;;;4.43;2.10;;;8.70;54.00;;;;;;5007750;28;20206;-92
2021/03/16 10:50:12;;;;;;;3.57;2.20;;;8.80;54.20;;;;;;5024707;28;20245;-91
2021/03/16 10:52:38;;;;;;;3.20;2.20;;;8.90;51.10;;;;;;5026133;28;20186;-92
2021/03/16 10:55:04;;;;;;;5.07;3.00;;;8.90;51.50;;;;;;5019904;28;20257;-92
2021/03/16 10:57:30;;;;;;;7.43;3.87;;;9.00;52.20;;;;;;5008533;28;20229;-94
2021/03/16 10:59:56;;;;;;;11.87;4.27;;;9.20;50.40;;;;;;5021804;28;20213;-93
2021/03/16 11:02:22;;;;;;;6.10;2.73;;;9.30;52.00;;;;;;5003173;28;20243;-92
2021/03/16 11:04:47;;;;;;;8.17;4.83;;;9.20;52.60;;;;;;5008124;28;20182;-92
2021/03/16 11:07:13;;;;;;;4.40;2.27;;;9.10;51.40;;;;;;5008530;28;20271;-93
2021/03/16 11:09:39;;;;;;;5.30;2.57;;;9.00;52.20;;;;;;5023793;28;20257;-93
2021/03/16 11:12:05;;;;;;;6.33;2.57;;;8.90;52.80;;;;;;5005990;28;20201;-92
2021/03/16 11:14:31;;;;;;;6.43;3.00;;;8.70;52.30;;;;;;5010601;28;20220;-92
2021/03/16 11:16:57;;;;;;;10.33;6.23;;;8.50;55.00;;;;;;4990673;28;20225;-92
2021/03/16 11:19:22;;;;;;;6.30;4.93;;;8.50;52.70;;;;;;5009824;28;20208;-92
2021/03/16 11:21:48;;;;;;;5.30;2.70;;;8.60;53.00;;;;;;5011718;28;20224;-92
2021/03/16 11:24:18;;;;;;;3.90;2.20;;;8.50;53.20;;;;;;5017065;28;20187;-91
2021/03/16 11:26:44;;;;;;;5.93;2.70;;;8.40;54.80;;;;;;5008187;28;20736;-91
2021/03/16 11:29:10;;;;;;;5.23;2.40;;;8.30;55.10;;;;;;5018779;28;20292;-93
2021/03/16 11:31:36;;;;;;;4.80;2.60;;;8.30;54.50;;;;;;5021159;28;20205;-91
2021/03/16 11:34:02;;;;;;;4.53;2.57;;;8.30;54.60;;;;;;5011000;28;20193;-92
2021/03/16 11:36:27;;;;;;;4.67;2.50;;;8.30;54.20;;;;;;5010072;28;20197;-92
2021/03/16 11:38:53;;;;;;;7.30;2.60;;;8.30;54.50;;;;;;5010278;28;20205;-91
2021/03/16 11:41:19;;;;;;;2.97;2.33;;;8.40;55.00;;;;;;5028923;28;20221;-91
2021/03/16 11:43:45;;;;;;;5.60;2.23;;;8.40;53.90;;;;;;5029004;28;20565;-91
2021/03/16 11:46:11;;;;;;;8.40;2.70;;;8.70;53.60;;;;;;5026859;28;20540;-91
2021/03/16 11:48:36;;;;;;;4.43;2.40;;;8.90;52.20;;;;;;5022050;28;20185;-91
2021/03/16 11:51:03;;;;;;;3.87;1.90;;;9.30;51.40;;;;;;5024203;28;20273;-91
2021/03/16 11:53:29;;;;;;;3.20;2.53;;;9.30;51.50;;;;;;5010877;28;20190;-91
2021/03/16 11:55:54;;;;;;;4.13;2.43;;;9.40;50.70;;;;;;5028534;28;20244;-91
2021/03/16 11:58:20;;;;;;;4.73;2.60;;;9.30;51.40;;;;;;5022878;28;20217;-91
2021/03/16 12:00:46;;;;;;;7.40;2.40;;;9.10;51.50;;;;;;5022238;28;20190;-90
2021/03/16 12:03:11;;;;;;;3.37;2.17;;;9.00;51.70;;;;;;5026731;28;20218;-90
2021/03/16 12:05:37;;;;;;;5.30;2.20;;;9.00;53.20;;;;;;5021066;28;20603;-91
2021/03/16 12:08:03;;;;;;;8.57;3.47;;;8.90;52.50;;;;;;5018758;28;20241;-92
2021/03/16 12:10:29;;;;;;;6.50;2.87;;;8.80;53.60;;;;;;5018225;28;20217;-94
2021/03/16 12:12:55;;;;;;;2.93;2.23;;;8.70;53.90;;;;;;5005407;28;20581;-93
2021/03/16 12:15:24;;;;;;;2.83;2.00;;;8.70;54.00;;;;;;4994452;28;20205;-93
2021/03/16 12:17:50;;;;;;;6.80;2.47;;;8.80;54.90;;;;;;4992708;28;20244;-93
2021/03/16 12:20:16;;;;;;;3.93;2.10;;;9.00;54.80;;;;;;5010846;28;20213;-93
2021/03/16 12:22:43;;;;;;;7.70;2.70;;;9.00;53.50;;;;;;5010321;28;20225;-93
2021/03/16 12:25:09;;;;;;;4.03;2.43;;;9.00;54.70;;;;;;4984242;28;20183;-93
2021/03/16 12:27:35;;;;;;;8.37;2.37;;;9.00;55.00;;;;;;5016599;28;20205;-93
2021/03/16 12:30:01;;;;;;;6.20;2.37;;;9.00;54.30;;;;;;5024273;28;20255;-93
2021/03/16 12:32:27;;;;;;;3.80;2.03;;;9.10;54.80;;;;;;5027578;28;20178;-93
2021/03/16 12:34:53;;;;;;;6.40;2.40;;;9.10;53.70;;;;;;5027125;28;20224;-92
2021/03/16 12:37:19;;;;;;;6.07;2.40;;;9.20;53.00;;;;;;5029083;28;20213;-93
2021/03/16 12:39:48;;;;;;;5.07;2.10;;;9.30;52.80;;;;;;5029746;28;20209;-93
2021/03/16 12:42:14;;;;;;;8.37;3.60;;;9.20;52.10;;;;;;5034454;28;20216;-92
2021/03/16 12:44:40;;;;;;;4.67;2.80;;;9.10;53.70;;;;;;5029109;28;20181;-89
2021/03/16 12:47:06;;;;;;;5.03;2.90;;;9.10;52.70;;;;;;5015065;28;20286;-94
2021/03/16 12:49:33;;;;;;;6.13;2.50;;;9.10;53.10;;;;;;5014402;28;20193;-90
2021/03/16 12:51:59;;;;;;;11.73;7.23;;;9.20;54.30;;;;;;5012173;28;20185;-90
2021/03/16 12:54:25;;;;;;;4.47;2.80;;;9.20;53.60;;;;;;5008312;28;20197;-91
2021/03/16 12:56:51;;;;;;;7.03;3.30;;;9.20;54.60;;;;;;5027390;28;20205;-91
2021/03/16 12:59:18;;;;;;;4.63;2.60;;;9.30;55.10;;;;;;5009052;28;20277;-90
2021/03/16 13:01:44;;;;;;;5.30;3.07;;;9.20;54.70;;;;;;5025785;28;20703;-90
2021/03/16 13:04:10;;;;;;;6.80;2.67;;;9.30;53.70;;;;;;4992524;28;20216;-90